<?xml version="1.0" encoding="utf-8"?>
<gpx xmlns:xsi="http://www.w3.org/2001/XMLSchema-instance" xmlns:xsd="http://www.w3.org/2001/XMLSchema" version="1.1" creator="Shapelink.com" xmlns="http://www.topografix.com/GPX/1/1" xmlns:gpxtpx="http://www.garmin.com/xmlschemas/TrackPointExtension/v1">
  <metadata>
    <name>Löpning 12.09 km, 2019-02-02</name>
    <desc></desc>
    <author><name>Marian Moron</name></author> 
    <time>2019-02-02T10:46:56Z</time>
  </metadata>
  <trk>
    <name>Löpning 12.09 km, 2019-02-02</name>
    <trkseg>
      <trkpt lat="51.23032954153" lon="4.458740137978">
        <ele>3.2</ele>
        <time>2019-02-02T10:46:56Z</time>
      </trkpt>
      <trkpt lat="51.230343623122" lon="4.45876679242">
        <ele>4.4</ele>
        <time>2019-02-02T10:46:57Z</time>
      </trkpt>
      <trkpt lat="51.230408918123" lon="4.459059656006">
        <ele>7.6</ele>
        <time>2019-02-02T10:47:03Z</time>
      </trkpt>
      <trkpt lat="51.230449486519" lon="4.459373893437">
        <ele>9.8</ele>
        <time>2019-02-02T10:47:12Z</time>
      </trkpt>
      <trkpt lat="51.230469183984" lon="4.459694920207">
        <ele>11</ele>
        <time>2019-02-02T10:47:20Z</time>
      </trkpt>
      <trkpt lat="51.230581333806" lon="4.459934810185">
        <ele>12.4</ele>
        <time>2019-02-02T10:47:29Z</time>
      </trkpt>
      <trkpt lat="51.230582255815" lon="4.459968421604">
        <ele>12.6</ele>
        <time>2019-02-02T10:47:30Z</time>
      </trkpt>
      <trkpt lat="51.230599690167" lon="4.460245862494">
        <ele>13.6</ele>
        <time>2019-02-02T10:47:38Z</time>
      </trkpt>
      <trkpt lat="51.230622405116" lon="4.460548700541">
        <ele>13.8</ele>
        <time>2019-02-02T10:47:46Z</time>
      </trkpt>
      <trkpt lat="51.2306505683" lon="4.460810718735">
        <ele>14.8</ele>
        <time>2019-02-02T10:47:53Z</time>
      </trkpt>
      <trkpt lat="51.230752492204" lon="4.461084890684">
        <ele>16.2</ele>
        <time>2019-02-02T10:48:02Z</time>
      </trkpt>
      <trkpt lat="51.230819631223" lon="4.461369456189">
        <ele>16.2</ele>
        <time>2019-02-02T10:48:10Z</time>
      </trkpt>
      <trkpt lat="51.230939492393" lon="4.461615045859">
        <ele>16.8</ele>
        <time>2019-02-02T10:48:20Z</time>
      </trkpt>
      <trkpt lat="51.230958519306" lon="4.461914614965">
        <ele>17</ele>
        <time>2019-02-02T10:48:28Z</time>
      </trkpt>
      <trkpt lat="51.23094644937" lon="4.462206472723">
        <ele>16.6</ele>
        <time>2019-02-02T10:48:36Z</time>
      </trkpt>
      <trkpt lat="51.231007972516" lon="4.462483913613">
        <ele>17.4</ele>
        <time>2019-02-02T10:48:44Z</time>
      </trkpt>
      <trkpt lat="51.231109728782" lon="4.462758337019">
        <ele>16.2</ele>
        <time>2019-02-02T10:48:51Z</time>
      </trkpt>
      <trkpt lat="51.231148704617" lon="4.46305413427">
        <ele>15.6</ele>
        <time>2019-02-02T10:48:58Z</time>
      </trkpt>
      <trkpt lat="51.231164043494" lon="4.463367365873">
        <ele>15.2</ele>
        <time>2019-02-02T10:49:05Z</time>
      </trkpt>
      <trkpt lat="51.231132779007" lon="4.463668024626">
        <ele>14.8</ele>
        <time>2019-02-02T10:49:12Z</time>
      </trkpt>
      <trkpt lat="51.231116518121" lon="4.463982262057">
        <ele>14.4</ele>
        <time>2019-02-02T10:49:19Z</time>
      </trkpt>
      <trkpt lat="51.231112075714" lon="4.464298762601">
        <ele>14.2</ele>
        <time>2019-02-02T10:49:26Z</time>
      </trkpt>
      <trkpt lat="51.231103358538" lon="4.464617861534">
        <ele>14.6</ele>
        <time>2019-02-02T10:49:34Z</time>
      </trkpt>
      <trkpt lat="51.231161696562" lon="4.46492329797">
        <ele>14.6</ele>
        <time>2019-02-02T10:49:41Z</time>
      </trkpt>
      <trkpt lat="51.231160104001" lon="4.465241474894">
        <ele>14.2</ele>
        <time>2019-02-02T10:49:50Z</time>
      </trkpt>
      <trkpt lat="51.231089360765" lon="4.465521681811">
        <ele>13.4</ele>
        <time>2019-02-02T10:49:57Z</time>
      </trkpt>
      <trkpt lat="51.231066729635" lon="4.465809013343">
        <ele>12.4</ele>
        <time>2019-02-02T10:50:04Z</time>
      </trkpt>
      <trkpt lat="51.231040410469" lon="4.466110677924">
        <ele>11.4</ele>
        <time>2019-02-02T10:50:11Z</time>
      </trkpt>
      <trkpt lat="51.231003278652" lon="4.466409325021">
        <ele>10.4</ele>
        <time>2019-02-02T10:50:18Z</time>
      </trkpt>
      <trkpt lat="51.230963129351" lon="4.466719371502">
        <ele>9.4</ele>
        <time>2019-02-02T10:50:25Z</time>
      </trkpt>
      <trkpt lat="51.230964302817" lon="4.466984742456">
        <ele>9.6</ele>
        <time>2019-02-02T10:50:31Z</time>
      </trkpt>
      <trkpt lat="51.231138562518" lon="4.467063113221">
        <ele>9.4</ele>
        <time>2019-02-02T10:50:38Z</time>
      </trkpt>
      <trkpt lat="51.231339644299" lon="4.467061017746">
        <ele>8.8</ele>
        <time>2019-02-02T10:50:46Z</time>
      </trkpt>
      <trkpt lat="51.231541396632" lon="4.467100747952">
        <ele>7.6</ele>
        <time>2019-02-02T10:50:55Z</time>
      </trkpt>
      <trkpt lat="51.23172177512" lon="4.467079709383">
        <ele>5.6</ele>
        <time>2019-02-02T10:51:04Z</time>
      </trkpt>
      <trkpt lat="51.231886982369" lon="4.466974684176">
        <ele>5.6</ele>
        <time>2019-02-02T10:51:13Z</time>
      </trkpt>
      <trkpt lat="51.231958731433" lon="4.466999662238">
        <ele>5.6</ele>
        <time>2019-02-02T10:51:16Z</time>
      </trkpt>
      <trkpt lat="51.231999048372" lon="4.467275929662">
        <ele>5.4</ele>
        <time>2019-02-02T10:51:23Z</time>
      </trkpt>
      <trkpt lat="51.232113293669" lon="4.4675443181">
        <ele>6.8</ele>
        <time>2019-02-02T10:51:31Z</time>
      </trkpt>
      <trkpt lat="51.232259557824" lon="4.467810191968">
        <ele>9.2</ele>
        <time>2019-02-02T10:51:38Z</time>
      </trkpt>
      <trkpt lat="51.232369947447" lon="4.468067683936">
        <ele>13.2</ele>
        <time>2019-02-02T10:51:47Z</time>
      </trkpt>
      <trkpt lat="51.232466423116" lon="4.468330456501">
        <ele>14.2</ele>
        <time>2019-02-02T10:51:55Z</time>
      </trkpt>
      <trkpt lat="51.232572118875" lon="4.468573112506">
        <ele>16.6</ele>
        <time>2019-02-02T10:52:02Z</time>
      </trkpt>
      <trkpt lat="51.23271167751" lon="4.468827251714">
        <ele>17.6</ele>
        <time>2019-02-02T10:52:09Z</time>
      </trkpt>
      <trkpt lat="51.232852325792" lon="4.469055071756">
        <ele>19.4</ele>
        <time>2019-02-02T10:52:18Z</time>
      </trkpt>
      <trkpt lat="51.232964978528" lon="4.469319269244">
        <ele>22.8</ele>
        <time>2019-02-02T10:52:26Z</time>
      </trkpt>
      <trkpt lat="51.23307964292" lon="4.4695811198">
        <ele>22.6</ele>
        <time>2019-02-02T10:52:34Z</time>
      </trkpt>
      <trkpt lat="51.233194391131" lon="4.469822769977">
        <ele>25.4</ele>
        <time>2019-02-02T10:52:41Z</time>
      </trkpt>
      <trkpt lat="51.233319532898" lon="4.470042291938">
        <ele>26.2</ele>
        <time>2019-02-02T10:52:48Z</time>
      </trkpt>
      <trkpt lat="51.233495888074" lon="4.47033884356">
        <ele>27.2</ele>
        <time>2019-02-02T10:52:58Z</time>
      </trkpt>
      <trkpt lat="51.233600829462" lon="4.470595664976">
        <ele>25</ele>
        <time>2019-02-02T10:53:06Z</time>
      </trkpt>
      <trkpt lat="51.233697808045" lon="4.470837315153">
        <ele>24.8</ele>
        <time>2019-02-02T10:53:14Z</time>
      </trkpt>
      <trkpt lat="51.233769976204" lon="4.471102518469">
        <ele>24.8</ele>
        <time>2019-02-02T10:53:22Z</time>
      </trkpt>
      <trkpt lat="51.233886233157" lon="4.471359172247">
        <ele>22.4</ele>
        <time>2019-02-02T10:53:30Z</time>
      </trkpt>
      <trkpt lat="51.23401338658" lon="4.471622028631">
        <ele>20.2</ele>
        <time>2019-02-02T10:53:38Z</time>
      </trkpt>
      <trkpt lat="51.234115897217" lon="4.47187356945">
        <ele>22</ele>
        <time>2019-02-02T10:53:46Z</time>
      </trkpt>
      <trkpt lat="51.234233159998" lon="4.47210826265">
        <ele>19.4</ele>
        <time>2019-02-02T10:53:53Z</time>
      </trkpt>
      <trkpt lat="51.234342208517" lon="4.472369694111">
        <ele>19.8</ele>
        <time>2019-02-02T10:54:01Z</time>
      </trkpt>
      <trkpt lat="51.23447187651" lon="4.472611511926">
        <ele>17.8</ele>
        <time>2019-02-02T10:54:08Z</time>
      </trkpt>
      <trkpt lat="51.234581176486" lon="4.472890126282">
        <ele>15.2</ele>
        <time>2019-02-02T10:54:15Z</time>
      </trkpt>
      <trkpt lat="51.234681675467" lon="4.47317276395">
        <ele>15.4</ele>
        <time>2019-02-02T10:54:23Z</time>
      </trkpt>
      <trkpt lat="51.234789969615" lon="4.473416844878">
        <ele>17</ele>
        <time>2019-02-02T10:54:30Z</time>
      </trkpt>
      <trkpt lat="51.234945034765" lon="4.473619435401">
        <ele>16.6</ele>
        <time>2019-02-02T10:54:37Z</time>
      </trkpt>
      <trkpt lat="51.235110242014" lon="4.473833928222">
        <ele>18.2</ele>
        <time>2019-02-02T10:54:43Z</time>
      </trkpt>
      <trkpt lat="51.235230354641" lon="4.474106926705">
        <ele>20.6</ele>
        <time>2019-02-02T10:54:50Z</time>
      </trkpt>
      <trkpt lat="51.235275365444" lon="4.474409848571">
        <ele>26.2</ele>
        <time>2019-02-02T10:54:58Z</time>
      </trkpt>
      <trkpt lat="51.235309060682" lon="4.474707908935">
        <ele>33</ele>
        <time>2019-02-02T10:55:07Z</time>
      </trkpt>
      <trkpt lat="51.235399166107" lon="4.474997587399">
        <ele>30.4</ele>
        <time>2019-02-02T10:55:15Z</time>
      </trkpt>
      <trkpt lat="51.235433950992" lon="4.475296653591">
        <ele>30.6</ele>
        <time>2019-02-02T10:55:23Z</time>
      </trkpt>
      <trkpt lat="51.235468316782" lon="4.475595468326">
        <ele>38.4</ele>
        <time>2019-02-02T10:55:31Z</time>
      </trkpt>
      <trkpt lat="51.235456665941" lon="4.47591448344">
        <ele>39.8</ele>
        <time>2019-02-02T10:55:39Z</time>
      </trkpt>
      <trkpt lat="51.235458593778" lon="4.476203239895">
        <ele>37.4</ele>
        <time>2019-02-02T10:55:46Z</time>
      </trkpt>
      <trkpt lat="51.235461527443" lon="4.476515633308">
        <ele>36.6</ele>
        <time>2019-02-02T10:55:54Z</time>
      </trkpt>
      <trkpt lat="51.235505448599" lon="4.476815956785">
        <ele>32.6</ele>
        <time>2019-02-02T10:56:02Z</time>
      </trkpt>
      <trkpt lat="51.235559344216" lon="4.477127847284">
        <ele>29.4</ele>
        <time>2019-02-02T10:56:10Z</time>
      </trkpt>
      <trkpt lat="51.235655652247" lon="4.477398163559">
        <ele>24.2</ele>
        <time>2019-02-02T10:56:16Z</time>
      </trkpt>
      <trkpt lat="51.235764197852" lon="4.477649452921">
        <ele>20</ele>
        <time>2019-02-02T10:56:22Z</time>
      </trkpt>
      <trkpt lat="51.235849190318" lon="4.477960169954">
        <ele>21.6</ele>
        <time>2019-02-02T10:56:29Z</time>
      </trkpt>
      <trkpt lat="51.236002327631" lon="4.478264097648">
        <ele>29.4</ele>
        <time>2019-02-02T10:56:36Z</time>
      </trkpt>
      <trkpt lat="51.236121182973" lon="4.478579508545">
        <ele>31.4</ele>
        <time>2019-02-02T10:56:43Z</time>
      </trkpt>
      <trkpt lat="51.236189244001" lon="4.478898942754">
        <ele>32</ele>
        <time>2019-02-02T10:56:50Z</time>
      </trkpt>
      <trkpt lat="51.23620944438" lon="4.479204882104">
        <ele>34.4</ele>
        <time>2019-02-02T10:56:57Z</time>
      </trkpt>
      <trkpt lat="51.23623123732" lon="4.479509312712">
        <ele>36</ele>
        <time>2019-02-02T10:57:04Z</time>
      </trkpt>
      <trkpt lat="51.236300639452" lon="4.479814413872">
        <ele>41.4</ele>
        <time>2019-02-02T10:57:12Z</time>
      </trkpt>
      <trkpt lat="51.236300387995" lon="4.48011800629">
        <ele>46.2</ele>
        <time>2019-02-02T10:57:20Z</time>
      </trkpt>
      <trkpt lat="51.236281193444" lon="4.480422855993">
        <ele>45.8</ele>
        <time>2019-02-02T10:57:27Z</time>
      </trkpt>
      <trkpt lat="51.236262837083" lon="4.480724269117">
        <ele>45.4</ele>
        <time>2019-02-02T10:57:34Z</time>
      </trkpt>
      <trkpt lat="51.236278008322" lon="4.481013612305">
        <ele>44.4</ele>
        <time>2019-02-02T10:57:42Z</time>
      </trkpt>
      <trkpt lat="51.236282031634" lon="4.481301782027">
        <ele>43</ele>
        <time>2019-02-02T10:57:49Z</time>
      </trkpt>
      <trkpt lat="51.236265770748" lon="4.481606380273">
        <ele>44.8</ele>
        <time>2019-02-02T10:57:58Z</time>
      </trkpt>
      <trkpt lat="51.236174575676" lon="4.481903183352">
        <ele>35.8</ele>
        <time>2019-02-02T10:58:06Z</time>
      </trkpt>
      <trkpt lat="51.236113303987" lon="4.482201495173">
        <ele>29.8</ele>
        <time>2019-02-02T10:58:13Z</time>
      </trkpt>
      <trkpt lat="51.236074747247" lon="4.482511290197">
        <ele>24</ele>
        <time>2019-02-02T10:58:20Z</time>
      </trkpt>
      <trkpt lat="51.23604515914" lon="4.482801387756">
        <ele>17.8</ele>
        <time>2019-02-02T10:58:27Z</time>
      </trkpt>
      <trkpt lat="51.236019845802" lon="4.483084025424">
        <ele>11.6</ele>
        <time>2019-02-02T10:58:35Z</time>
      </trkpt>
      <trkpt lat="51.236013224101" lon="4.483564727389">
        <ele>7.4</ele>
        <time>2019-02-02T10:58:47Z</time>
      </trkpt>
      <trkpt lat="51.23600576421" lon="4.483874438594">
        <ele>5.8</ele>
        <time>2019-02-02T10:58:55Z</time>
      </trkpt>
      <trkpt lat="51.236020683992" lon="4.484182473419">
        <ele>6.4</ele>
        <time>2019-02-02T10:59:02Z</time>
      </trkpt>
      <trkpt lat="51.236043231303" lon="4.484473828263">
        <ele>9.8</ele>
        <time>2019-02-02T10:59:09Z</time>
      </trkpt>
      <trkpt lat="51.236041387285" lon="4.484763003813">
        <ele>13.4</ele>
        <time>2019-02-02T10:59:16Z</time>
      </trkpt>
      <trkpt lat="51.23605521742" lon="4.485068691706">
        <ele>16</ele>
        <time>2019-02-02T10:59:24Z</time>
      </trkpt>
      <trkpt lat="51.236057564352" lon="4.4853810013">
        <ele>16.6</ele>
        <time>2019-02-02T10:59:32Z</time>
      </trkpt>
      <trkpt lat="51.23604515914" lon="4.485694568179">
        <ele>16.4</ele>
        <time>2019-02-02T10:59:40Z</time>
      </trkpt>
      <trkpt lat="51.236037028697" lon="4.486003022099">
        <ele>16.4</ele>
        <time>2019-02-02T10:59:48Z</time>
      </trkpt>
      <trkpt lat="51.236034933222" lon="4.486319857919">
        <ele>18</ele>
        <time>2019-02-02T10:59:56Z</time>
      </trkpt>
      <trkpt lat="51.236056809981" lon="4.486634011531">
        <ele>20.8</ele>
        <time>2019-02-02T11:00:04Z</time>
      </trkpt>
      <trkpt lat="51.236052870488" lon="4.486941878718">
        <ele>19.6</ele>
        <time>2019-02-02T11:00:12Z</time>
      </trkpt>
      <trkpt lat="51.236046919339" lon="4.487257541072">
        <ele>18.2</ele>
        <time>2019-02-02T11:00:20Z</time>
      </trkpt>
      <trkpt lat="51.236048008986" lon="4.487570185942">
        <ele>17</ele>
        <time>2019-02-02T11:00:28Z</time>
      </trkpt>
      <trkpt lat="51.236044823864" lon="4.487868162487">
        <ele>16.2</ele>
        <time>2019-02-02T11:00:36Z</time>
      </trkpt>
      <trkpt lat="51.236052283755" lon="4.488195894777">
        <ele>16.2</ele>
        <time>2019-02-02T11:00:44Z</time>
      </trkpt>
      <trkpt lat="51.23606108475" lon="4.488514490796">
        <ele>16.8</ele>
        <time>2019-02-02T11:00:52Z</time>
      </trkpt>
      <trkpt lat="51.236057061438" lon="4.488804085441">
        <ele>16.8</ele>
        <time>2019-02-02T11:00:59Z</time>
      </trkpt>
      <trkpt lat="51.23606443751" lon="4.489095607923">
        <ele>17</ele>
        <time>2019-02-02T11:01:06Z</time>
      </trkpt>
      <trkpt lat="51.236071562125" lon="4.489420658005">
        <ele>18.4</ele>
        <time>2019-02-02T11:01:14Z</time>
      </trkpt>
      <trkpt lat="51.236037112516" lon="4.489729195744">
        <ele>19.4</ele>
        <time>2019-02-02T11:01:22Z</time>
      </trkpt>
      <trkpt lat="51.236060917112" lon="4.489953495388">
        <ele>20.6</ele>
        <time>2019-02-02T11:01:29Z</time>
      </trkpt>
      <trkpt lat="51.236102826612" lon="4.489948550067">
        <ele>20</ele>
        <time>2019-02-02T11:01:38Z</time>
      </trkpt>
      <trkpt lat="51.236141634809" lon="4.489989621377">
        <ele>20</ele>
        <time>2019-02-02T11:01:42Z</time>
      </trkpt>
      <trkpt lat="51.236287563688" lon="4.490208221329">
        <ele>15.2</ele>
        <time>2019-02-02T11:01:53Z</time>
      </trkpt>
      <trkpt lat="51.236422596097" lon="4.490401172667">
        <ele>13.8</ele>
        <time>2019-02-02T11:02:01Z</time>
      </trkpt>
      <trkpt lat="51.236607919906" lon="4.490432101878">
        <ele>15.4</ele>
        <time>2019-02-02T11:02:08Z</time>
      </trkpt>
      <trkpt lat="51.236800116873" lon="4.490428246204">
        <ele>19.6</ele>
        <time>2019-02-02T11:02:15Z</time>
      </trkpt>
      <trkpt lat="51.236998684084" lon="4.490407207635">
        <ele>22.2</ele>
        <time>2019-02-02T11:02:23Z</time>
      </trkpt>
      <trkpt lat="51.237179481667" lon="4.490335710028">
        <ele>22.2</ele>
        <time>2019-02-02T11:02:30Z</time>
      </trkpt>
      <trkpt lat="51.237370588987" lon="4.490216351772">
        <ele>22</ele>
        <time>2019-02-02T11:02:38Z</time>
      </trkpt>
      <trkpt lat="51.237546273611" lon="4.490118954094">
        <ele>23.2</ele>
        <time>2019-02-02T11:02:45Z</time>
      </trkpt>
      <trkpt lat="51.237733692895" lon="4.490034883637">
        <ele>23.4</ele>
        <time>2019-02-02T11:02:52Z</time>
      </trkpt>
      <trkpt lat="51.237929158803" lon="4.489967912256">
        <ele>25.6</ele>
        <time>2019-02-02T11:03:00Z</time>
      </trkpt>
      <trkpt lat="51.2381272231" lon="4.489953076293">
        <ele>25.2</ele>
        <time>2019-02-02T11:03:08Z</time>
      </trkpt>
      <trkpt lat="51.238330735632" lon="4.489977970536">
        <ele>12.6</ele>
        <time>2019-02-02T11:03:14Z</time>
      </trkpt>
      <trkpt lat="51.238510946482" lon="4.490003032417">
        <ele>5.8</ele>
        <time>2019-02-02T11:03:19Z</time>
      </trkpt>
      <trkpt lat="51.238714878109" lon="4.490041672976">
        <ele>4</ele>
        <time>2019-02-02T11:03:26Z</time>
      </trkpt>
      <trkpt lat="51.238908164723" lon="4.490108728176">
        <ele>4</ele>
        <time>2019-02-02T11:03:33Z</time>
      </trkpt>
      <trkpt lat="51.239099774957" lon="4.490200426162">
        <ele>4.8</ele>
        <time>2019-02-02T11:03:40Z</time>
      </trkpt>
      <trkpt lat="51.239291804286" lon="4.490294890175">
        <ele>4.2</ele>
        <time>2019-02-02T11:03:47Z</time>
      </trkpt>
      <trkpt lat="51.239484755624" lon="4.490374350587">
        <ele>5.6</ele>
        <time>2019-02-02T11:03:55Z</time>
      </trkpt>
      <trkpt lat="51.239680053894" lon="4.490445680556">
        <ele>6.2</ele>
        <time>2019-02-02T11:04:03Z</time>
      </trkpt>
      <trkpt lat="51.239869987748" lon="4.490544670795">
        <ele>7</ele>
        <time>2019-02-02T11:04:11Z</time>
      </trkpt>
      <trkpt lat="51.24004835458" lon="4.490627903062">
        <ele>6</ele>
        <time>2019-02-02T11:04:18Z</time>
      </trkpt>
      <trkpt lat="51.240225883222" lon="4.490713146985">
        <ele>6</ele>
        <time>2019-02-02T11:04:25Z</time>
      </trkpt>
      <trkpt lat="51.240411961402" lon="4.490792607397">
        <ele>5.4</ele>
        <time>2019-02-02T11:04:32Z</time>
      </trkpt>
      <trkpt lat="51.24058814894" lon="4.490874833836">
        <ele>4.6</ele>
        <time>2019-02-02T11:04:39Z</time>
      </trkpt>
      <trkpt lat="51.240829380022" lon="4.491013973376">
        <ele>2</ele>
        <time>2019-02-02T11:04:49Z</time>
      </trkpt>
      <trkpt lat="51.241007411578" lon="4.491088572286">
        <ele>0.6</ele>
        <time>2019-02-02T11:04:56Z</time>
      </trkpt>
      <trkpt lat="51.241195082319" lon="4.491187478706">
        <ele>0</ele>
        <time>2019-02-02T11:05:04Z</time>
      </trkpt>
      <trkpt lat="51.241370096391" lon="4.491317146699">
        <ele>0.2</ele>
        <time>2019-02-02T11:05:12Z</time>
      </trkpt>
      <trkpt lat="51.241527173197" lon="4.491473385315">
        <ele>1.6</ele>
        <time>2019-02-02T11:05:19Z</time>
      </trkpt>
      <trkpt lat="51.241658685208" lon="4.491691649991">
        <ele>1.6</ele>
        <time>2019-02-02T11:05:27Z</time>
      </trkpt>
      <trkpt lat="51.241766476442" lon="4.491957523859">
        <ele>1.4</ele>
        <time>2019-02-02T11:05:35Z</time>
      </trkpt>
      <trkpt lat="51.241846691225" lon="4.492250303626">
        <ele>0.4</ele>
        <time>2019-02-02T11:05:43Z</time>
      </trkpt>
      <trkpt lat="51.241916512452" lon="4.492528750344">
        <ele>1</ele>
        <time>2019-02-02T11:05:50Z</time>
      </trkpt>
      <trkpt lat="51.241936712831" lon="4.492825469604">
        <ele>1.2</ele>
        <time>2019-02-02T11:05:57Z</time>
      </trkpt>
      <trkpt lat="51.241971832992" lon="4.493101485571">
        <ele>2</ele>
        <time>2019-02-02T11:06:04Z</time>
      </trkpt>
      <trkpt lat="51.242026147704" lon="4.493376998624">
        <ele>2.6</ele>
        <time>2019-02-02T11:06:11Z</time>
      </trkpt>
      <trkpt lat="51.242072331973" lon="4.493681429232">
        <ele>0.6</ele>
        <time>2019-02-02T11:06:19Z</time>
      </trkpt>
      <trkpt lat="51.24209521456" lon="4.493722165266">
        <ele>0.6</ele>
        <time>2019-02-02T11:06:20Z</time>
      </trkpt>
      <trkpt lat="51.242108877057" lon="4.493725518026">
        <ele>0.6</ele>
        <time>2019-02-02T11:06:22Z</time>
      </trkpt>
      <trkpt lat="51.242272827021" lon="4.493577326034">
        <ele>0.4</ele>
        <time>2019-02-02T11:06:32Z</time>
      </trkpt>
      <trkpt lat="51.242305432612" lon="4.493560981329">
        <ele>0</ele>
        <time>2019-02-02T11:06:34Z</time>
      </trkpt>
      <trkpt lat="51.24237517002" lon="4.493828699215">
        <ele>0.6</ele>
        <time>2019-02-02T11:06:42Z</time>
      </trkpt>
      <trkpt lat="51.242402914109" lon="4.494147546691">
        <ele>1.6</ele>
        <time>2019-02-02T11:06:50Z</time>
      </trkpt>
      <trkpt lat="51.242450020387" lon="4.49443010054">
        <ele>0</ele>
        <time>2019-02-02T11:06:58Z</time>
      </trkpt>
      <trkpt lat="51.242481033417" lon="4.494715755692">
        <ele>2.4</ele>
        <time>2019-02-02T11:07:05Z</time>
      </trkpt>
      <trkpt lat="51.242489834412" lon="4.495032842969">
        <ele>2</ele>
        <time>2019-02-02T11:07:13Z</time>
      </trkpt>
      <trkpt lat="51.242495450285" lon="4.495323024347">
        <ele>0</ele>
        <time>2019-02-02T11:07:21Z</time>
      </trkpt>
      <trkpt lat="51.242500982339" lon="4.495620917073">
        <ele>0</ele>
        <time>2019-02-02T11:07:30Z</time>
      </trkpt>
      <trkpt lat="51.242508945144" lon="4.495642542375">
        <ele>0</ele>
        <time>2019-02-02T11:07:31Z</time>
      </trkpt>
      <trkpt lat="51.242671721642" lon="4.495835158437">
        <ele>0</ele>
        <time>2019-02-02T11:07:40Z</time>
      </trkpt>
      <trkpt lat="51.242835839244" lon="4.49596147367">
        <ele>0</ele>
        <time>2019-02-02T11:07:48Z</time>
      </trkpt>
      <trkpt lat="51.243001381769" lon="4.496080831926">
        <ele>0</ele>
        <time>2019-02-02T11:07:55Z</time>
      </trkpt>
      <trkpt lat="51.243153345616" lon="4.496252409419">
        <ele>0</ele>
        <time>2019-02-02T11:08:02Z</time>
      </trkpt>
      <trkpt lat="51.243296257011" lon="4.496455838132">
        <ele>0</ele>
        <time>2019-02-02T11:08:08Z</time>
      </trkpt>
      <trkpt lat="51.243381417115" lon="4.496742582931">
        <ele>0</ele>
        <time>2019-02-02T11:08:15Z</time>
      </trkpt>
      <trkpt lat="51.243379573097" lon="4.497032429033">
        <ele>0</ele>
        <time>2019-02-02T11:08:22Z</time>
      </trkpt>
      <trkpt lat="51.243328359688" lon="4.497322861868">
        <ele>0</ele>
        <time>2019-02-02T11:08:29Z</time>
      </trkpt>
      <trkpt lat="51.24337513069" lon="4.497616312187">
        <ele>0</ele>
        <time>2019-02-02T11:08:36Z</time>
      </trkpt>
      <trkpt lat="51.243523825596" lon="4.49782896099">
        <ele>0</ele>
        <time>2019-02-02T11:08:43Z</time>
      </trkpt>
      <trkpt lat="51.243713172717" lon="4.497835247415">
        <ele>0</ele>
        <time>2019-02-02T11:08:51Z</time>
      </trkpt>
      <trkpt lat="51.243898747983" lon="4.497741956868">
        <ele>0</ele>
        <time>2019-02-02T11:09:00Z</time>
      </trkpt>
      <trkpt lat="51.24402891889" lon="4.497513633912">
        <ele>0.8</ele>
        <time>2019-02-02T11:09:08Z</time>
      </trkpt>
      <trkpt lat="51.244159592711" lon="4.497310037561">
        <ele>3</ele>
        <time>2019-02-02T11:09:16Z</time>
      </trkpt>
      <trkpt lat="51.244350197117" lon="4.497273073382">
        <ele>7.8</ele>
        <time>2019-02-02T11:09:24Z</time>
      </trkpt>
      <trkpt lat="51.244551278898" lon="4.497287741707">
        <ele>13.8</ele>
        <time>2019-02-02T11:09:33Z</time>
      </trkpt>
      <trkpt lat="51.244659405408" lon="4.497192607142">
        <ele>13.6</ele>
        <time>2019-02-02T11:09:38Z</time>
      </trkpt>
      <trkpt lat="51.244853278755" lon="4.497274330667">
        <ele>12</ele>
        <time>2019-02-02T11:09:46Z</time>
      </trkpt>
      <trkpt lat="51.244876077523" lon="4.497268463337">
        <ele>11.4</ele>
        <time>2019-02-02T11:09:47Z</time>
      </trkpt>
      <trkpt lat="51.245073219811" lon="4.497315569615">
        <ele>6.4</ele>
        <time>2019-02-02T11:09:55Z</time>
      </trkpt>
      <trkpt lat="51.24527363104" lon="4.497312719769">
        <ele>3.8</ele>
        <time>2019-02-02T11:10:03Z</time>
      </trkpt>
      <trkpt lat="51.245412854399" lon="4.497292351752">
        <ele>0.6</ele>
        <time>2019-02-02T11:10:10Z</time>
      </trkpt>
      <trkpt lat="51.245468174939" lon="4.497041984399">
        <ele>0.2</ele>
        <time>2019-02-02T11:10:18Z</time>
      </trkpt>
      <trkpt lat="51.245488794413" lon="4.496740319818">
        <ele>0</ele>
        <time>2019-02-02T11:10:26Z</time>
      </trkpt>
      <trkpt lat="51.24551419157" lon="4.49666806784">
        <ele>0</ele>
        <time>2019-02-02T11:10:27Z</time>
      </trkpt>
      <trkpt lat="51.245666323055" lon="4.49647528414">
        <ele>0</ele>
        <time>2019-02-02T11:10:35Z</time>
      </trkpt>
      <trkpt lat="51.245841588584" lon="4.496382999421">
        <ele>0</ele>
        <time>2019-02-02T11:10:42Z</time>
      </trkpt>
      <trkpt lat="51.246138559301" lon="4.496346119061">
        <ele>0</ele>
        <time>2019-02-02T11:10:54Z</time>
      </trkpt>
      <trkpt lat="51.246188766882" lon="4.496033641829">
        <ele>0</ele>
        <time>2019-02-02T11:11:02Z</time>
      </trkpt>
      <trkpt lat="51.246215002229" lon="4.495721164597">
        <ele>0</ele>
        <time>2019-02-02T11:11:10Z</time>
      </trkpt>
      <trkpt lat="51.246238220092" lon="4.495408687365">
        <ele>0</ele>
        <time>2019-02-02T11:11:18Z</time>
      </trkpt>
      <trkpt lat="51.246199244257" lon="4.4951040053">
        <ele>0</ele>
        <time>2019-02-02T11:11:25Z</time>
      </trkpt>
      <trkpt lat="51.246184408294" lon="4.494803681823">
        <ele>0</ele>
        <time>2019-02-02T11:11:32Z</time>
      </trkpt>
      <trkpt lat="51.246192371099" lon="4.49449715574">
        <ele>0.6</ele>
        <time>2019-02-02T11:11:39Z</time>
      </trkpt>
      <trkpt lat="51.24619312547" lon="4.494209237475">
        <ele>1.4</ele>
        <time>2019-02-02T11:11:46Z</time>
      </trkpt>
      <trkpt lat="51.246198657524" lon="4.493914697509">
        <ele>1.8</ele>
        <time>2019-02-02T11:11:53Z</time>
      </trkpt>
      <trkpt lat="51.246229838192" lon="4.493613452023">
        <ele>1.6</ele>
        <time>2019-02-02T11:12:00Z</time>
      </trkpt>
      <trkpt lat="51.246286835112" lon="4.493320001704">
        <ele>1.6</ele>
        <time>2019-02-02T11:12:07Z</time>
      </trkpt>
      <trkpt lat="51.246346598059" lon="4.493030658516">
        <ele>0</ele>
        <time>2019-02-02T11:12:15Z</time>
      </trkpt>
      <trkpt lat="51.246431506706" lon="4.492746093011">
        <ele>0</ele>
        <time>2019-02-02T11:12:23Z</time>
      </trkpt>
      <trkpt lat="51.246536112818" lon="4.49249304345">
        <ele>0</ele>
        <time>2019-02-02T11:12:30Z</time>
      </trkpt>
      <trkpt lat="51.246647340631" lon="4.492242508459">
        <ele>0.4</ele>
        <time>2019-02-02T11:12:37Z</time>
      </trkpt>
      <trkpt lat="51.246780864298" lon="4.492001696472">
        <ele>2.6</ele>
        <time>2019-02-02T11:12:45Z</time>
      </trkpt>
      <trkpt lat="51.246890834826" lon="4.491734565319">
        <ele>2.4</ele>
        <time>2019-02-02T11:12:53Z</time>
      </trkpt>
      <trkpt lat="51.24693408543" lon="4.491681507892">
        <ele>1.2</ele>
        <time>2019-02-02T11:12:56Z</time>
      </trkpt>
      <trkpt lat="51.246969037953" lon="4.491703300832">
        <ele>1.6</ele>
        <time>2019-02-02T11:12:58Z</time>
      </trkpt>
      <trkpt lat="51.247131143899" lon="4.491881080931">
        <ele>5.2</ele>
        <time>2019-02-02T11:13:08Z</time>
      </trkpt>
      <trkpt lat="51.247301631745" lon="4.492053496614">
        <ele>7.2</ele>
        <time>2019-02-02T11:13:16Z</time>
      </trkpt>
      <trkpt lat="51.247474131247" lon="4.492223481546">
        <ele>5</ele>
        <time>2019-02-02T11:13:24Z</time>
      </trkpt>
      <trkpt lat="51.247629364035" lon="4.492403105663">
        <ele>2.6</ele>
        <time>2019-02-02T11:13:33Z</time>
      </trkpt>
      <trkpt lat="51.247805132478" lon="4.492542329022">
        <ele>2.2</ele>
        <time>2019-02-02T11:13:40Z</time>
      </trkpt>
      <trkpt lat="51.247987522622" lon="4.492674260128">
        <ele>3.4</ele>
        <time>2019-02-02T11:13:47Z</time>
      </trkpt>
      <trkpt lat="51.248150634396" lon="4.492801832646">
        <ele>5.8</ele>
        <time>2019-02-02T11:13:54Z</time>
      </trkpt>
      <trkpt lat="51.248310309591" lon="4.492980450935">
        <ele>9.4</ele>
        <time>2019-02-02T11:14:02Z</time>
      </trkpt>
      <trkpt lat="51.248469733329" lon="4.493130822221">
        <ele>12.2</ele>
        <time>2019-02-02T11:14:09Z</time>
      </trkpt>
      <trkpt lat="51.248626893954" lon="4.493309021415">
        <ele>14</ele>
        <time>2019-02-02T11:14:17Z</time>
      </trkpt>
      <trkpt lat="51.248780953276" lon="4.493455788484">
        <ele>15.6</ele>
        <time>2019-02-02T11:14:24Z</time>
      </trkpt>
      <trkpt lat="51.248940963747" lon="4.493620911914">
        <ele>17.8</ele>
        <time>2019-02-02T11:14:32Z</time>
      </trkpt>
      <trkpt lat="51.249098124372" lon="4.493814282347">
        <ele>15.6</ele>
        <time>2019-02-02T11:14:40Z</time>
      </trkpt>
      <trkpt lat="51.249259811223" lon="4.493957277561">
        <ele>14.8</ele>
        <time>2019-02-02T11:14:47Z</time>
      </trkpt>
      <trkpt lat="51.249423677368" lon="4.494120137878">
        <ele>12</ele>
        <time>2019-02-02T11:14:55Z</time>
      </trkpt>
      <trkpt lat="51.249604810227" lon="4.494284423118">
        <ele>9.4</ele>
        <time>2019-02-02T11:15:02Z</time>
      </trkpt>
      <trkpt lat="51.249766497078" lon="4.494422053916">
        <ele>7.2</ele>
        <time>2019-02-02T11:15:08Z</time>
      </trkpt>
      <trkpt lat="51.249934302716" lon="4.494584578957">
        <ele>3.6</ele>
        <time>2019-02-02T11:15:15Z</time>
      </trkpt>
      <trkpt lat="51.250086937115" lon="4.494739141193">
        <ele>2.8</ele>
        <time>2019-02-02T11:15:22Z</time>
      </trkpt>
      <trkpt lat="51.25022733394" lon="4.494921531337">
        <ele>5.2</ele>
        <time>2019-02-02T11:15:30Z</time>
      </trkpt>
      <trkpt lat="51.250276032779" lon="4.495006104708">
        <ele>5.6</ele>
        <time>2019-02-02T11:15:33Z</time>
      </trkpt>
      <trkpt lat="51.250348117119" lon="4.495309780945">
        <ele>5.6</ele>
        <time>2019-02-02T11:15:41Z</time>
      </trkpt>
      <trkpt lat="51.250420285278" lon="4.495617061399">
        <ele>7.6</ele>
        <time>2019-02-02T11:15:48Z</time>
      </trkpt>
      <trkpt lat="51.250454651068" lon="4.495909757347">
        <ele>10.8</ele>
        <time>2019-02-02T11:15:55Z</time>
      </trkpt>
      <trkpt lat="51.250522544458" lon="4.49618191764">
        <ele>14.2</ele>
        <time>2019-02-02T11:16:02Z</time>
      </trkpt>
      <trkpt lat="51.250614912996" lon="4.496451731001">
        <ele>18.2</ele>
        <time>2019-02-02T11:16:09Z</time>
      </trkpt>
      <trkpt lat="51.250684315128" lon="4.4967300939">
        <ele>20.8</ele>
        <time>2019-02-02T11:16:16Z</time>
      </trkpt>
      <trkpt lat="51.250760590418" lon="4.497003092383">
        <ele>19</ele>
        <time>2019-02-02T11:16:23Z</time>
      </trkpt>
      <trkpt lat="51.250842062486" lon="4.497280700911">
        <ele>17.4</ele>
        <time>2019-02-02T11:16:30Z</time>
      </trkpt>
      <trkpt lat="51.250876093" lon="4.497604409889">
        <ele>16.4</ele>
        <time>2019-02-02T11:16:40Z</time>
      </trkpt>
      <trkpt lat="51.250674508305" lon="4.497693090391">
        <ele>16.8</ele>
        <time>2019-02-02T11:16:47Z</time>
      </trkpt>
      <trkpt lat="51.250480132044" lon="4.497769198043">
        <ele>13</ele>
        <time>2019-02-02T11:16:54Z</time>
      </trkpt>
      <trkpt lat="51.250279720815" lon="4.497783111997">
        <ele>13.2</ele>
        <time>2019-02-02T11:17:02Z</time>
      </trkpt>
      <trkpt lat="51.250085260735" lon="4.497828458076">
        <ele>12.6</ele>
        <time>2019-02-02T11:17:09Z</time>
      </trkpt>
      <trkpt lat="51.249881412927" lon="4.497853687595">
        <ele>9.6</ele>
        <time>2019-02-02T11:17:16Z</time>
      </trkpt>
      <trkpt lat="51.249689383598" lon="4.497846646799">
        <ele>8.2</ele>
        <time>2019-02-02T11:17:23Z</time>
      </trkpt>
      <trkpt lat="51.249502215771" lon="4.497905487737">
        <ele>6.6</ele>
        <time>2019-02-02T11:17:30Z</time>
      </trkpt>
      <trkpt lat="51.249318149247" lon="4.497870619033">
        <ele>5.2</ele>
        <time>2019-02-02T11:17:37Z</time>
      </trkpt>
      <trkpt lat="51.249140620605" lon="4.497823512755">
        <ele>7.2</ele>
        <time>2019-02-02T11:17:44Z</time>
      </trkpt>
      <trkpt lat="51.248963762515" lon="4.497765174731">
        <ele>7.8</ele>
        <time>2019-02-02T11:17:51Z</time>
      </trkpt>
      <trkpt lat="51.248759495612" lon="4.497763414532">
        <ele>8.6</ele>
        <time>2019-02-02T11:17:59Z</time>
      </trkpt>
      <trkpt lat="51.248564281161" lon="4.497766851111">
        <ele>9.4</ele>
        <time>2019-02-02T11:18:06Z</time>
      </trkpt>
      <trkpt lat="51.24836822852" lon="4.49773676009">
        <ele>10.8</ele>
        <time>2019-02-02T11:18:14Z</time>
      </trkpt>
      <trkpt lat="51.248187682394" lon="4.497669621071">
        <ele>9.8</ele>
        <time>2019-02-02T11:18:22Z</time>
      </trkpt>
      <trkpt lat="51.247996491255" lon="4.497617569472">
        <ele>6.8</ele>
        <time>2019-02-02T11:18:31Z</time>
      </trkpt>
      <trkpt lat="51.247810999808" lon="4.497588651917">
        <ele>9.6</ele>
        <time>2019-02-02T11:18:38Z</time>
      </trkpt>
      <trkpt lat="51.247622407058" lon="4.49756912209">
        <ele>13</ele>
        <time>2019-02-02T11:18:45Z</time>
      </trkpt>
      <trkpt lat="51.247429958634" lon="4.497593764876">
        <ele>11.2</ele>
        <time>2019-02-02T11:18:53Z</time>
      </trkpt>
      <trkpt lat="51.247229882681" lon="4.497542467648">
        <ele>7.6</ele>
        <time>2019-02-02T11:19:01Z</time>
      </trkpt>
      <trkpt lat="51.247028884719" lon="4.497525033296">
        <ele>6.4</ele>
        <time>2019-02-02T11:19:09Z</time>
      </trkpt>
      <trkpt lat="51.246848925326" lon="4.497513214817">
        <ele>4.6</ele>
        <time>2019-02-02T11:19:17Z</time>
      </trkpt>
      <trkpt lat="51.246665948449" lon="4.497483375253">
        <ele>2</ele>
        <time>2019-02-02T11:19:26Z</time>
      </trkpt>
      <trkpt lat="51.246468303247" lon="4.497480609226">
        <ele>2</ele>
        <time>2019-02-02T11:19:33Z</time>
      </trkpt>
      <trkpt lat="51.246284152904" lon="4.497442723038">
        <ele>0.2</ele>
        <time>2019-02-02T11:19:40Z</time>
      </trkpt>
      <trkpt lat="51.246080891829" lon="4.497451943128">
        <ele>2.4</ele>
        <time>2019-02-02T11:19:48Z</time>
      </trkpt>
      <trkpt lat="51.245883078989" lon="4.497441549572">
        <ele>2.8</ele>
        <time>2019-02-02T11:19:56Z</time>
      </trkpt>
      <trkpt lat="51.245697336085" lon="4.497438532088">
        <ele>4.6</ele>
        <time>2019-02-02T11:20:03Z</time>
      </trkpt>
      <trkpt lat="51.245508491878" lon="4.497408441067">
        <ele>5</ele>
        <time>2019-02-02T11:20:10Z</time>
      </trkpt>
      <trkpt lat="51.245308080649" lon="4.497398801882">
        <ele>3</ele>
        <time>2019-02-02T11:20:18Z</time>
      </trkpt>
      <trkpt lat="51.245114626397" lon="4.497423109392">
        <ele>1.4</ele>
        <time>2019-02-02T11:20:25Z</time>
      </trkpt>
      <trkpt lat="51.244937097755" lon="4.497398550425">
        <ele>0</ele>
        <time>2019-02-02T11:20:33Z</time>
      </trkpt>
      <trkpt lat="51.244756048715" lon="4.497287825526">
        <ele>1.2</ele>
        <time>2019-02-02T11:20:41Z</time>
      </trkpt>
      <trkpt lat="51.244570054354" lon="4.497142986294">
        <ele>2.4</ele>
        <time>2019-02-02T11:20:48Z</time>
      </trkpt>
      <trkpt lat="51.244409205693" lon="4.496972498448">
        <ele>3.2</ele>
        <time>2019-02-02T11:20:55Z</time>
      </trkpt>
      <trkpt lat="51.24426864123" lon="4.496742163836">
        <ele>1.6</ele>
        <time>2019-02-02T11:21:03Z</time>
      </trkpt>
      <trkpt lat="51.244162610195" lon="4.496492299397">
        <ele>0</ele>
        <time>2019-02-02T11:21:10Z</time>
      </trkpt>
      <trkpt lat="51.244062111214" lon="4.496223324226">
        <ele>0</ele>
        <time>2019-02-02T11:21:18Z</time>
      </trkpt>
      <trkpt lat="51.243971335237" lon="4.495972118683">
        <ele>0</ele>
        <time>2019-02-02T11:21:25Z</time>
      </trkpt>
      <trkpt lat="51.243861532347" lon="4.495699455476">
        <ele>0</ele>
        <time>2019-02-02T11:21:33Z</time>
      </trkpt>
      <trkpt lat="51.243721806074" lon="4.495490075614">
        <ele>0</ele>
        <time>2019-02-02T11:21:41Z</time>
      </trkpt>
      <trkpt lat="51.243576715385" lon="4.495310954411">
        <ele>0</ele>
        <time>2019-02-02T11:21:48Z</time>
      </trkpt>
      <trkpt lat="51.243418213656" lon="4.495156727451">
        <ele>0</ele>
        <time>2019-02-02T11:21:55Z</time>
      </trkpt>
      <trkpt lat="51.24323431477" lon="4.495032004779">
        <ele>0</ele>
        <time>2019-02-02T11:22:03Z</time>
      </trkpt>
      <trkpt lat="51.243034574093" lon="4.494987748347">
        <ele>0</ele>
        <time>2019-02-02T11:22:11Z</time>
      </trkpt>
      <trkpt lat="51.242851932492" lon="4.494930667608">
        <ele>0</ele>
        <time>2019-02-02T11:22:19Z</time>
      </trkpt>
      <trkpt lat="51.242595278714" lon="4.494675354934">
        <ele>0.6</ele>
        <time>2019-02-02T11:22:30Z</time>
      </trkpt>
      <trkpt lat="51.242568121358" lon="4.494712402932">
        <ele>2.2</ele>
        <time>2019-02-02T11:22:32Z</time>
      </trkpt>
      <trkpt lat="51.242577844362" lon="4.495001662301">
        <ele>0.6</ele>
        <time>2019-02-02T11:22:39Z</time>
      </trkpt>
      <trkpt lat="51.242590081936" lon="4.495321431786">
        <ele>0</ele>
        <time>2019-02-02T11:22:47Z</time>
      </trkpt>
      <trkpt lat="51.242605839908" lon="4.495614965924">
        <ele>0</ele>
        <time>2019-02-02T11:22:55Z</time>
      </trkpt>
      <trkpt lat="51.242740956136" lon="4.495835326075">
        <ele>0</ele>
        <time>2019-02-02T11:23:04Z</time>
      </trkpt>
      <trkpt lat="51.242916976036" lon="4.495953343227">
        <ele>0</ele>
        <time>2019-02-02T11:23:14Z</time>
      </trkpt>
      <trkpt lat="51.243068856064" lon="4.496109414205">
        <ele>2.4</ele>
        <time>2019-02-02T11:23:22Z</time>
      </trkpt>
      <trkpt lat="51.243245881792" lon="4.496275962558">
        <ele>8</ele>
        <time>2019-02-02T11:23:30Z</time>
      </trkpt>
      <trkpt lat="51.243386530074" lon="4.496497160899">
        <ele>11.4</ele>
        <time>2019-02-02T11:23:36Z</time>
      </trkpt>
      <trkpt lat="51.243487280512" lon="4.496753479401">
        <ele>12.2</ele>
        <time>2019-02-02T11:23:42Z</time>
      </trkpt>
      <trkpt lat="51.243475462033" lon="4.497030082101">
        <ele>10.8</ele>
        <time>2019-02-02T11:23:49Z</time>
      </trkpt>
      <trkpt lat="51.243438414035" lon="4.497327555732">
        <ele>9.8</ele>
        <time>2019-02-02T11:23:56Z</time>
      </trkpt>
      <trkpt lat="51.243465152296" lon="4.497610025762">
        <ele>5.8</ele>
        <time>2019-02-02T11:24:03Z</time>
      </trkpt>
      <trkpt lat="51.243586857484" lon="4.497836001786">
        <ele>1.4</ele>
        <time>2019-02-02T11:24:12Z</time>
      </trkpt>
      <trkpt lat="51.243757932063" lon="4.49795552768">
        <ele>0.4</ele>
        <time>2019-02-02T11:24:23Z</time>
      </trkpt>
      <trkpt lat="51.243862621994" lon="4.498224754308">
        <ele>2.2</ele>
        <time>2019-02-02T11:24:31Z</time>
      </trkpt>
      <trkpt lat="51.243889863169" lon="4.49831092024">
        <ele>2.2</ele>
        <time>2019-02-02T11:24:34Z</time>
      </trkpt>
      <trkpt lat="51.243888857341" lon="4.498375796146">
        <ele>2</ele>
        <time>2019-02-02T11:24:37Z</time>
      </trkpt>
      <trkpt lat="51.243857509035" lon="4.498521557387">
        <ele>5.2</ele>
        <time>2019-02-02T11:24:42Z</time>
      </trkpt>
      <trkpt lat="51.243699258763" lon="4.498666983352">
        <ele>8.4</ele>
        <time>2019-02-02T11:24:48Z</time>
      </trkpt>
      <trkpt lat="51.243547462554" lon="4.4987249861">
        <ele>8.6</ele>
        <time>2019-02-02T11:24:54Z</time>
      </trkpt>
      <trkpt lat="51.243429361583" lon="4.498506805243">
        <ele>5.4</ele>
        <time>2019-02-02T11:25:01Z</time>
      </trkpt>
      <trkpt lat="51.243282678333" lon="4.49827823083">
        <ele>0</ele>
        <time>2019-02-02T11:25:08Z</time>
      </trkpt>
      <trkpt lat="51.243158374756" lon="4.498026019459">
        <ele>0</ele>
        <time>2019-02-02T11:25:15Z</time>
      </trkpt>
      <trkpt lat="51.243072460281" lon="4.497760732324">
        <ele>0</ele>
        <time>2019-02-02T11:25:22Z</time>
      </trkpt>
      <trkpt lat="51.242984617969" lon="4.497493852628">
        <ele>0</ele>
        <time>2019-02-02T11:25:30Z</time>
      </trkpt>
      <trkpt lat="51.242892249431" lon="4.497242898542">
        <ele>0</ele>
        <time>2019-02-02T11:25:37Z</time>
      </trkpt>
      <trkpt lat="51.242792672459" lon="4.497001918917">
        <ele>0</ele>
        <time>2019-02-02T11:25:44Z</time>
      </trkpt>
      <trkpt lat="51.242696280609" lon="4.496748701718">
        <ele>0</ele>
        <time>2019-02-02T11:25:52Z</time>
      </trkpt>
      <trkpt lat="51.242587986461" lon="4.49651300269">
        <ele>0</ele>
        <time>2019-02-02T11:25:59Z</time>
      </trkpt>
      <trkpt lat="51.242491426973" lon="4.496263641165">
        <ele>0</ele>
        <time>2019-02-02T11:26:06Z</time>
      </trkpt>
      <trkpt lat="51.24241707952" lon="4.496001120057">
        <ele>0</ele>
        <time>2019-02-02T11:26:13Z</time>
      </trkpt>
      <trkpt lat="51.242368883595" lon="4.495690905938">
        <ele>0</ele>
        <time>2019-02-02T11:26:21Z</time>
      </trkpt>
      <trkpt lat="51.242307695725" lon="4.495412794496">
        <ele>0</ele>
        <time>2019-02-02T11:26:28Z</time>
      </trkpt>
      <trkpt lat="51.242248938606" lon="4.495126301154">
        <ele>0</ele>
        <time>2019-02-02T11:26:35Z</time>
      </trkpt>
      <trkpt lat="51.242200072129" lon="4.494843495848">
        <ele>0</ele>
        <time>2019-02-02T11:26:42Z</time>
      </trkpt>
      <trkpt lat="51.242129999445" lon="4.494553649746">
        <ele>0</ele>
        <time>2019-02-02T11:26:49Z</time>
      </trkpt>
      <trkpt lat="51.242102422994" lon="4.494232706795">
        <ele>0</ele>
        <time>2019-02-02T11:26:57Z</time>
      </trkpt>
      <trkpt lat="51.242032685586" lon="4.493946213453">
        <ele>0</ele>
        <time>2019-02-02T11:27:04Z</time>
      </trkpt>
      <trkpt lat="51.241965462748" lon="4.493660223025">
        <ele>0.4</ele>
        <time>2019-02-02T11:27:11Z</time>
      </trkpt>
      <trkpt lat="51.24192673837" lon="4.493359396634">
        <ele>1.2</ele>
        <time>2019-02-02T11:27:18Z</time>
      </trkpt>
      <trkpt lat="51.241904693973" lon="4.493035017104">
        <ele>3.2</ele>
        <time>2019-02-02T11:27:26Z</time>
      </trkpt>
      <trkpt lat="51.241891366752" lon="4.492706362805">
        <ele>3.4</ele>
        <time>2019-02-02T11:27:33Z</time>
      </trkpt>
      <trkpt lat="51.2418571686" lon="4.492412493391">
        <ele>2.2</ele>
        <time>2019-02-02T11:27:40Z</time>
      </trkpt>
      <trkpt lat="51.241784748984" lon="4.49214938555">
        <ele>2.8</ele>
        <time>2019-02-02T11:27:47Z</time>
      </trkpt>
      <trkpt lat="51.241676454836" lon="4.491879907465">
        <ele>2.6</ele>
        <time>2019-02-02T11:27:55Z</time>
      </trkpt>
      <trkpt lat="51.241569417973" lon="4.49163557508">
        <ele>0.8</ele>
        <time>2019-02-02T11:28:03Z</time>
      </trkpt>
      <trkpt lat="51.241412257348" lon="4.49143860043">
        <ele>1.2</ele>
        <time>2019-02-02T11:28:11Z</time>
      </trkpt>
      <trkpt lat="51.241231795041" lon="4.491308261885">
        <ele>1.6</ele>
        <time>2019-02-02T11:28:19Z</time>
      </trkpt>
      <trkpt lat="51.24100640575" lon="4.49119971628">
        <ele>0.6</ele>
        <time>2019-02-02T11:28:28Z</time>
      </trkpt>
      <trkpt lat="51.240812364765" lon="4.491103156792">
        <ele>1.6</ele>
        <time>2019-02-02T11:28:36Z</time>
      </trkpt>
      <trkpt lat="51.240617150314" lon="4.491027216778">
        <ele>0.6</ele>
        <time>2019-02-02T11:28:44Z</time>
      </trkpt>
      <trkpt lat="51.24043643655" lon="4.490958401379">
        <ele>3.4</ele>
        <time>2019-02-02T11:28:51Z</time>
      </trkpt>
      <trkpt lat="51.240263350315" lon="4.490872067809">
        <ele>4.8</ele>
        <time>2019-02-02T11:28:58Z</time>
      </trkpt>
      <trkpt lat="51.240087833329" lon="4.490793110311">
        <ele>7.8</ele>
        <time>2019-02-02T11:29:05Z</time>
      </trkpt>
      <trkpt lat="51.23991005323" lon="4.490717505573">
        <ele>9.2</ele>
        <time>2019-02-02T11:29:12Z</time>
      </trkpt>
      <trkpt lat="51.239734200968" lon="4.490635949686">
        <ele>11</ele>
        <time>2019-02-02T11:29:19Z</time>
      </trkpt>
      <trkpt lat="51.239560360362" lon="4.490557746559">
        <ele>10.8</ele>
        <time>2019-02-02T11:29:26Z</time>
      </trkpt>
      <trkpt lat="51.23936522973" lon="4.490473089369">
        <ele>9.6</ele>
        <time>2019-02-02T11:29:35Z</time>
      </trkpt>
      <trkpt lat="51.239189964201" lon="4.490380050279">
        <ele>7.6</ele>
        <time>2019-02-02T11:29:43Z</time>
      </trkpt>
      <trkpt lat="51.239014531034" lon="4.490301595695">
        <ele>6.2</ele>
        <time>2019-02-02T11:29:50Z</time>
      </trkpt>
      <trkpt lat="51.238838511134" lon="4.490244598775">
        <ele>5.4</ele>
        <time>2019-02-02T11:29:57Z</time>
      </trkpt>
      <trkpt lat="51.23866031194" lon="4.490164719268">
        <ele>4.6</ele>
        <time>2019-02-02T11:30:04Z</time>
      </trkpt>
      <trkpt lat="51.238478759986" lon="4.490120295198">
        <ele>2.8</ele>
        <time>2019-02-02T11:30:11Z</time>
      </trkpt>
      <trkpt lat="51.238299722602" lon="4.490087354331">
        <ele>1.2</ele>
        <time>2019-02-02T11:30:18Z</time>
      </trkpt>
      <trkpt lat="51.238108112368" lon="4.490082157553">
        <ele>0</ele>
        <time>2019-02-02T11:30:25Z</time>
      </trkpt>
      <trkpt lat="51.237922620921" lon="4.490121384845">
        <ele>0</ele>
        <time>2019-02-02T11:30:32Z</time>
      </trkpt>
      <trkpt lat="51.237735117818" lon="4.490184081457">
        <ele>0</ele>
        <time>2019-02-02T11:30:39Z</time>
      </trkpt>
      <trkpt lat="51.237557421538" lon="4.490262871317">
        <ele>0</ele>
        <time>2019-02-02T11:30:46Z</time>
      </trkpt>
      <trkpt lat="51.237365727485" lon="4.490352892923">
        <ele>2.4</ele>
        <time>2019-02-02T11:30:53Z</time>
      </trkpt>
      <trkpt lat="51.237174368708" lon="4.490401005029">
        <ele>3.6</ele>
        <time>2019-02-02T11:31:01Z</time>
      </trkpt>
      <trkpt lat="51.236982507017" lon="4.490510640281">
        <ele>3.8</ele>
        <time>2019-02-02T11:31:10Z</time>
      </trkpt>
      <trkpt lat="51.23679031005" lon="4.490538719646">
        <ele>3.6</ele>
        <time>2019-02-02T11:31:19Z</time>
      </trkpt>
      <trkpt lat="51.236608255182" lon="4.490499659992">
        <ele>3.2</ele>
        <time>2019-02-02T11:31:26Z</time>
      </trkpt>
      <trkpt lat="51.23641647731" lon="4.4904269051">
        <ele>5</ele>
        <time>2019-02-02T11:31:33Z</time>
      </trkpt>
      <trkpt lat="51.236276080485" lon="4.490245604603">
        <ele>4.8</ele>
        <time>2019-02-02T11:31:40Z</time>
      </trkpt>
      <trkpt lat="51.236244229265" lon="4.490137813369">
        <ele>4.2</ele>
        <time>2019-02-02T11:31:44Z</time>
      </trkpt>
      <trkpt lat="51.236082458595" lon="4.48997009155">
        <ele>2.8</ele>
        <time>2019-02-02T11:31:51Z</time>
      </trkpt>
      <trkpt lat="51.235990425333" lon="4.489724334242">
        <ele>4.8</ele>
        <time>2019-02-02T11:31:57Z</time>
      </trkpt>
      <trkpt lat="51.236007608228" lon="4.489402553101">
        <ele>7.4</ele>
        <time>2019-02-02T11:32:04Z</time>
      </trkpt>
      <trkpt lat="51.236006853857" lon="4.489106085298">
        <ele>9.4</ele>
        <time>2019-02-02T11:32:11Z</time>
      </trkpt>
      <trkpt lat="51.235984138908" lon="4.488787908374">
        <ele>10</ele>
        <time>2019-02-02T11:32:19Z</time>
      </trkpt>
      <trkpt lat="51.235967039832" lon="4.488465372862">
        <ele>9</ele>
        <time>2019-02-02T11:32:27Z</time>
      </trkpt>
      <trkpt lat="51.235960166674" lon="4.48817552676">
        <ele>8.2</ele>
        <time>2019-02-02T11:32:34Z</time>
      </trkpt>
      <trkpt lat="51.235951198041" lon="4.487866067012">
        <ele>7.6</ele>
        <time>2019-02-02T11:32:41Z</time>
      </trkpt>
      <trkpt lat="51.23595379643" lon="4.487564067155">
        <ele>6.4</ele>
        <time>2019-02-02T11:32:48Z</time>
      </trkpt>
      <trkpt lat="51.235957652104" lon="4.487258043986">
        <ele>5.6</ele>
        <time>2019-02-02T11:32:55Z</time>
      </trkpt>
      <trkpt lat="51.235968129479" lon="4.486966186228">
        <ele>3.4</ele>
        <time>2019-02-02T11:33:02Z</time>
      </trkpt>
      <trkpt lat="51.235958993208" lon="4.486642812526">
        <ele>4.8</ele>
        <time>2019-02-02T11:33:10Z</time>
      </trkpt>
      <trkpt lat="51.235959328484" lon="4.486319690281">
        <ele>4.6</ele>
        <time>2019-02-02T11:33:18Z</time>
      </trkpt>
      <trkpt lat="51.235954215525" lon="4.485994388742">
        <ele>6.2</ele>
        <time>2019-02-02T11:33:26Z</time>
      </trkpt>
      <trkpt lat="51.235937619363" lon="4.485674535438">
        <ele>6.2</ele>
        <time>2019-02-02T11:33:34Z</time>
      </trkpt>
      <trkpt lat="51.235937535544" lon="4.485365243328">
        <ele>5.8</ele>
        <time>2019-02-02T11:33:42Z</time>
      </trkpt>
      <trkpt lat="51.235870899439" lon="4.485066428593">
        <ele>6.6</ele>
        <time>2019-02-02T11:33:50Z</time>
      </trkpt>
      <trkpt lat="51.235872743457" lon="4.484761495071">
        <ele>9</ele>
        <time>2019-02-02T11:33:58Z</time>
      </trkpt>
      <trkpt lat="51.235901661012" lon="4.484467038924">
        <ele>9</ele>
        <time>2019-02-02T11:34:05Z</time>
      </trkpt>
      <trkpt lat="51.235917586622" lon="4.483984241484">
        <ele>7.2</ele>
        <time>2019-02-02T11:34:17Z</time>
      </trkpt>
      <trkpt lat="51.235916245518" lon="4.483668327673">
        <ele>5.2</ele>
        <time>2019-02-02T11:34:25Z</time>
      </trkpt>
      <trkpt lat="51.235917670441" lon="4.483378230114">
        <ele>2.2</ele>
        <time>2019-02-02T11:34:33Z</time>
      </trkpt>
      <trkpt lat="51.235918173355" lon="4.483091820591">
        <ele>3.6</ele>
        <time>2019-02-02T11:34:41Z</time>
      </trkpt>
      <trkpt lat="51.235898559709" lon="4.482769368898">
        <ele>3.2</ele>
        <time>2019-02-02T11:34:50Z</time>
      </trkpt>
      <trkpt lat="51.235899565537" lon="4.482474577475">
        <ele>3.6</ele>
        <time>2019-02-02T11:34:58Z</time>
      </trkpt>
      <trkpt lat="51.235896045139" lon="4.482156819646">
        <ele>4.6</ele>
        <time>2019-02-02T11:35:06Z</time>
      </trkpt>
      <trkpt lat="51.235880287167" lon="4.48210535478">
        <ele>4.8</ele>
        <time>2019-02-02T11:35:08Z</time>
      </trkpt>
      <trkpt lat="51.235702758525" lon="4.482028325119">
        <ele>4</ele>
        <time>2019-02-02T11:35:18Z</time>
      </trkpt>
      <trkpt lat="51.235529420833" lon="4.481964622679">
        <ele>3.6</ele>
        <time>2019-02-02T11:35:27Z</time>
      </trkpt>
      <trkpt lat="51.235332278545" lon="4.481940482807">
        <ele>3</ele>
        <time>2019-02-02T11:35:36Z</time>
      </trkpt>
      <trkpt lat="51.235144607804" lon="4.482007202731">
        <ele>0.4</ele>
        <time>2019-02-02T11:35:45Z</time>
      </trkpt>
      <trkpt lat="51.234951824104" lon="4.482100493278">
        <ele>0</ele>
        <time>2019-02-02T11:35:52Z</time>
      </trkpt>
      <trkpt lat="51.234771026521" lon="4.482101918201">
        <ele>1</ele>
        <time>2019-02-02T11:35:58Z</time>
      </trkpt>
      <trkpt lat="51.234585451255" lon="4.482130835756">
        <ele>0.8</ele>
        <time>2019-02-02T11:36:05Z</time>
      </trkpt>
      <trkpt lat="51.234392835193" lon="4.48213050048">
        <ele>0.4</ele>
        <time>2019-02-02T11:36:12Z</time>
      </trkpt>
      <trkpt lat="51.234202482244" lon="4.482100577097">
        <ele>0</ele>
        <time>2019-02-02T11:36:19Z</time>
      </trkpt>
      <trkpt lat="51.234031994398" lon="4.482009465844">
        <ele>0</ele>
        <time>2019-02-02T11:36:26Z</time>
      </trkpt>
      <trkpt lat="51.233911378857" lon="4.482019105029">
        <ele>0</ele>
        <time>2019-02-02T11:36:32Z</time>
      </trkpt>
      <trkpt lat="51.233770562937" lon="4.482198226232">
        <ele>0</ele>
        <time>2019-02-02T11:36:39Z</time>
      </trkpt>
      <trkpt lat="51.233622706221" lon="4.482415820356">
        <ele>0</ele>
        <time>2019-02-02T11:36:47Z</time>
      </trkpt>
      <trkpt lat="51.233538551945" lon="4.482686723364">
        <ele>0</ele>
        <time>2019-02-02T11:36:53Z</time>
      </trkpt>
      <trkpt lat="51.233397903663" lon="4.482876741037">
        <ele>3</ele>
        <time>2019-02-02T11:37:00Z</time>
      </trkpt>
      <trkpt lat="51.233204449411" lon="4.482857546486">
        <ele>0.8</ele>
        <time>2019-02-02T11:37:08Z</time>
      </trkpt>
      <trkpt lat="51.233015437566" lon="4.482749252338">
        <ele>0</ele>
        <time>2019-02-02T11:37:16Z</time>
      </trkpt>
      <trkpt lat="51.23282650954" lon="4.482724022819">
        <ele>1</ele>
        <time>2019-02-02T11:37:24Z</time>
      </trkpt>
      <trkpt lat="51.232628026148" lon="4.482774565676">
        <ele>0.8</ele>
        <time>2019-02-02T11:37:32Z</time>
      </trkpt>
      <trkpt lat="51.232548817193" lon="4.482743887922">
        <ele>1</ele>
        <time>2019-02-02T11:37:36Z</time>
      </trkpt>
      <trkpt lat="51.232475894663" lon="4.482456472571">
        <ele>3.2</ele>
        <time>2019-02-02T11:37:44Z</time>
      </trkpt>
      <trkpt lat="51.232380676279" lon="4.482198058594">
        <ele>3.4</ele>
        <time>2019-02-02T11:37:52Z</time>
      </trkpt>
      <trkpt lat="51.232236759056" lon="4.482010555491">
        <ele>0</ele>
        <time>2019-02-02T11:38:00Z</time>
      </trkpt>
      <trkpt lat="51.232159980852" lon="4.481975100054">
        <ele>0</ele>
        <time>2019-02-02T11:38:04Z</time>
      </trkpt>
      <trkpt lat="51.232127794356" lon="4.481956073141">
        <ele>0</ele>
        <time>2019-02-02T11:38:07Z</time>
      </trkpt>
      <trkpt lat="51.232082280639" lon="4.481663293374">
        <ele>0</ele>
        <time>2019-02-02T11:38:15Z</time>
      </trkpt>
      <trkpt lat="51.232074317834" lon="4.48135936568">
        <ele>4.6</ele>
        <time>2019-02-02T11:38:24Z</time>
      </trkpt>
      <trkpt lat="51.232025954271" lon="4.481080416048">
        <ele>5</ele>
        <time>2019-02-02T11:38:31Z</time>
      </trkpt>
      <trkpt lat="51.231972477749" lon="4.480781601313">
        <ele>5</ele>
        <time>2019-02-02T11:38:39Z</time>
      </trkpt>
      <trkpt lat="51.231984463866" lon="4.480479349999">
        <ele>10.4</ele>
        <time>2019-02-02T11:38:47Z</time>
      </trkpt>
      <trkpt lat="51.23195060099" lon="4.480187240784">
        <ele>13.4</ele>
        <time>2019-02-02T11:38:54Z</time>
      </trkpt>
      <trkpt lat="51.231953450836" lon="4.479896221216">
        <ele>12.4</ele>
        <time>2019-02-02T11:39:01Z</time>
      </trkpt>
      <trkpt lat="51.232058978957" lon="4.479635711764">
        <ele>5</ele>
        <time>2019-02-02T11:39:10Z</time>
      </trkpt>
      <trkpt lat="51.232055123283" lon="4.479597071205">
        <ele>4.6</ele>
        <time>2019-02-02T11:39:11Z</time>
      </trkpt>
      <trkpt lat="51.23208219682" lon="4.479288365828">
        <ele>7.4</ele>
        <time>2019-02-02T11:39:19Z</time>
      </trkpt>
      <trkpt lat="51.232226114043" lon="4.479078231595">
        <ele>8.4</ele>
        <time>2019-02-02T11:39:26Z</time>
      </trkpt>
      <trkpt lat="51.23229425889" lon="4.478792408805">
        <ele>8.4</ele>
        <time>2019-02-02T11:39:33Z</time>
      </trkpt>
      <trkpt lat="51.232264838421" lon="4.478477249365">
        <ele>7.4</ele>
        <time>2019-02-02T11:39:41Z</time>
      </trkpt>
      <trkpt lat="51.232161238137" lon="4.478223026338">
        <ele>9.8</ele>
        <time>2019-02-02T11:39:48Z</time>
      </trkpt>
      <trkpt lat="51.232056380568" lon="4.477974503003">
        <ele>8.8</ele>
        <time>2019-02-02T11:39:55Z</time>
      </trkpt>
      <trkpt lat="51.231938279597" lon="4.477725476754">
        <ele>6.4</ele>
        <time>2019-02-02T11:40:03Z</time>
      </trkpt>
      <trkpt lat="51.231818418427" lon="4.477480809093">
        <ele>5.8</ele>
        <time>2019-02-02T11:40:11Z</time>
      </trkpt>
      <trkpt lat="51.231645918925" lon="4.477033299452">
        <ele>2.6</ele>
        <time>2019-02-02T11:40:25Z</time>
      </trkpt>
      <trkpt lat="51.231549443256" lon="4.47676608448">
        <ele>1.6</ele>
        <time>2019-02-02T11:40:33Z</time>
      </trkpt>
      <trkpt lat="51.23143762871" lon="4.476509430702">
        <ele>1.4</ele>
        <time>2019-02-02T11:40:41Z</time>
      </trkpt>
      <trkpt lat="51.231338303195" lon="4.476266690878">
        <ele>0.2</ele>
        <time>2019-02-02T11:40:48Z</time>
      </trkpt>
      <trkpt lat="51.23123059578" lon="4.476011378204">
        <ele>0.2</ele>
        <time>2019-02-02T11:40:56Z</time>
      </trkpt>
      <trkpt lat="51.231122385451" lon="4.475743576499">
        <ele>1.2</ele>
        <time>2019-02-02T11:41:05Z</time>
      </trkpt>
      <trkpt lat="51.231004452118" lon="4.475481306848">
        <ele>2.8</ele>
        <time>2019-02-02T11:41:12Z</time>
      </trkpt>
      <trkpt lat="51.23087771779" lon="4.475227670554">
        <ele>4.6</ele>
        <time>2019-02-02T11:41:20Z</time>
      </trkpt>
      <trkpt lat="51.230758359534" lon="4.474989289318">
        <ele>4.6</ele>
        <time>2019-02-02T11:41:27Z</time>
      </trkpt>
      <trkpt lat="51.230659117838" lon="4.474744286381">
        <ele>4</ele>
        <time>2019-02-02T11:41:34Z</time>
      </trkpt>
      <trkpt lat="51.230521570859" lon="4.474506659516">
        <ele>8.2</ele>
        <time>2019-02-02T11:41:42Z</time>
      </trkpt>
      <trkpt lat="51.230483852309" lon="4.474221004364">
        <ele>9.6</ele>
        <time>2019-02-02T11:41:49Z</time>
      </trkpt>
      <trkpt lat="51.230501789575" lon="4.473916406118">
        <ele>8.6</ele>
        <time>2019-02-02T11:41:56Z</time>
      </trkpt>
      <trkpt lat="51.230462897559" lon="4.473636450658">
        <ele>7.8</ele>
        <time>2019-02-02T11:42:03Z</time>
      </trkpt>
      <trkpt lat="51.230487288888" lon="4.473319866295">
        <ele>6.6</ele>
        <time>2019-02-02T11:42:12Z</time>
      </trkpt>
      <trkpt lat="51.230608742619" lon="4.473057261368">
        <ele>0</ele>
        <time>2019-02-02T11:42:21Z</time>
      </trkpt>
      <trkpt lat="51.230738410612" lon="4.472806307282">
        <ele>0</ele>
        <time>2019-02-02T11:42:29Z</time>
      </trkpt>
      <trkpt lat="51.230889703907" lon="4.472570692073">
        <ele>0</ele>
        <time>2019-02-02T11:42:37Z</time>
      </trkpt>
      <trkpt lat="51.230961369152" lon="4.472289898423">
        <ele>0</ele>
        <time>2019-02-02T11:42:44Z</time>
      </trkpt>
      <trkpt lat="51.230886854061" lon="4.472006674022">
        <ele>0</ele>
        <time>2019-02-02T11:42:52Z</time>
      </trkpt>
      <trkpt lat="51.230771435298" lon="4.47173442991">
        <ele>0</ele>
        <time>2019-02-02T11:43:00Z</time>
      </trkpt>
      <trkpt lat="51.230646796445" lon="4.471499652891">
        <ele>0</ele>
        <time>2019-02-02T11:43:07Z</time>
      </trkpt>
      <trkpt lat="51.230534646623" lon="4.471250291366">
        <ele>0</ele>
        <time>2019-02-02T11:43:14Z</time>
      </trkpt>
      <trkpt lat="51.230433141814" lon="4.470986345335">
        <ele>0</ele>
        <time>2019-02-02T11:43:21Z</time>
      </trkpt>
      <trkpt lat="51.230426436294" lon="4.470681747089">
        <ele>2.4</ele>
        <time>2019-02-02T11:43:28Z</time>
      </trkpt>
      <trkpt lat="51.230413276711" lon="4.470366000916">
        <ele>4.4</ele>
        <time>2019-02-02T11:43:35Z</time>
      </trkpt>
      <trkpt lat="51.230314370291" lon="4.470113118993">
        <ele>4.2</ele>
        <time>2019-02-02T11:43:42Z</time>
      </trkpt>
      <trkpt lat="51.230207752523" lon="4.469864344201">
        <ele>3.4</ele>
        <time>2019-02-02T11:43:49Z</time>
      </trkpt>
      <trkpt lat="51.230161568254" lon="4.469727467774">
        <ele>4.2</ele>
        <time>2019-02-02T11:43:53Z</time>
      </trkpt>
      <trkpt lat="51.230310179341" lon="4.469608360975">
        <ele>4.4</ele>
        <time>2019-02-02T11:44:00Z</time>
      </trkpt>
      <trkpt lat="51.230369523193" lon="4.469380373295">
        <ele>6.2</ele>
        <time>2019-02-02T11:44:06Z</time>
      </trkpt>
      <trkpt lat="51.230551410423" lon="4.469265289808">
        <ele>5.2</ele>
        <time>2019-02-02T11:44:14Z</time>
      </trkpt>
      <trkpt lat="51.230726759771" lon="4.469136795281">
        <ele>4.6</ele>
        <time>2019-02-02T11:44:22Z</time>
      </trkpt>
      <trkpt lat="51.23090789263" lon="4.46899773956">
        <ele>2.8</ele>
        <time>2019-02-02T11:44:30Z</time>
      </trkpt>
      <trkpt lat="51.231051893672" lon="4.468806213145">
        <ele>2.8</ele>
        <time>2019-02-02T11:44:37Z</time>
      </trkpt>
      <trkpt lat="51.231190111203" lon="4.468594821627">
        <ele>3.6</ele>
        <time>2019-02-02T11:44:44Z</time>
      </trkpt>
      <trkpt lat="51.23130603288" lon="4.468375215847">
        <ele>4.2</ele>
        <time>2019-02-02T11:44:51Z</time>
      </trkpt>
      <trkpt lat="51.231426313145" lon="4.468146222339">
        <ele>4.4</ele>
        <time>2019-02-02T11:44:58Z</time>
      </trkpt>
      <trkpt lat="51.231544581754" lon="4.467917647926">
        <ele>3.4</ele>
        <time>2019-02-02T11:45:05Z</time>
      </trkpt>
      <trkpt lat="51.231666538399" lon="4.467666107107">
        <ele>2</ele>
        <time>2019-02-02T11:45:13Z</time>
      </trkpt>
      <trkpt lat="51.231754129254" lon="4.467464522412">
        <ele>1.8</ele>
        <time>2019-02-02T11:45:20Z</time>
      </trkpt>
      <trkpt lat="51.231714147591" lon="4.46738925295">
        <ele>1.4</ele>
        <time>2019-02-02T11:45:23Z</time>
      </trkpt>
      <trkpt lat="51.231530583981" lon="4.467380703412">
        <ele>1.2</ele>
        <time>2019-02-02T11:45:30Z</time>
      </trkpt>
      <trkpt lat="51.231348193837" lon="4.46735069621">
        <ele>0.2</ele>
        <time>2019-02-02T11:45:37Z</time>
      </trkpt>
      <trkpt lat="51.231192122859" lon="4.467173586663">
        <ele>0</ele>
        <time>2019-02-02T11:45:44Z</time>
      </trkpt>
      <trkpt lat="51.231107130393" lon="4.466898576524">
        <ele>0.8</ele>
        <time>2019-02-02T11:45:52Z</time>
      </trkpt>
      <trkpt lat="51.23101182819" lon="4.466626080955">
        <ele>1</ele>
        <time>2019-02-02T11:46:00Z</time>
      </trkpt>
      <trkpt lat="51.231030687465" lon="4.466334055559">
        <ele>1.8</ele>
        <time>2019-02-02T11:46:07Z</time>
      </trkpt>
      <trkpt lat="51.231101765977" lon="4.465992325496">
        <ele>3.2</ele>
        <time>2019-02-02T11:46:16Z</time>
      </trkpt>
      <trkpt lat="51.23118030438" lon="4.465716309529">
        <ele>4</ele>
        <time>2019-02-02T11:46:24Z</time>
      </trkpt>
      <trkpt lat="51.231205282442" lon="4.465414896405">
        <ele>5</ele>
        <time>2019-02-02T11:46:32Z</time>
      </trkpt>
      <trkpt lat="51.231247611037" lon="4.465115075842">
        <ele>2.4</ele>
        <time>2019-02-02T11:46:40Z</time>
      </trkpt>
      <trkpt lat="51.231281473913" lon="4.46479924585">
        <ele>0.2</ele>
        <time>2019-02-02T11:46:48Z</time>
      </trkpt>
      <trkpt lat="51.231249287417" lon="4.464510992309">
        <ele>0</ele>
        <time>2019-02-02T11:46:56Z</time>
      </trkpt>
      <trkpt lat="51.231237217481" lon="4.464444523842">
        <ele>0</ele>
        <time>2019-02-02T11:46:58Z</time>
      </trkpt>
      <trkpt lat="51.23122556664" lon="4.464135902284">
        <ele>0</ele>
        <time>2019-02-02T11:47:06Z</time>
      </trkpt>
      <trkpt lat="51.23127669623" lon="4.463834992074">
        <ele>0</ele>
        <time>2019-02-02T11:47:14Z</time>
      </trkpt>
      <trkpt lat="51.231321539395" lon="4.463546654714">
        <ele>1</ele>
        <time>2019-02-02T11:47:21Z</time>
      </trkpt>
      <trkpt lat="51.231436874339" lon="4.463335347015">
        <ele>1.2</ele>
        <time>2019-02-02T11:47:28Z</time>
      </trkpt>
      <trkpt lat="51.23156168083" lon="4.463133091768">
        <ele>0</ele>
        <time>2019-02-02T11:47:36Z</time>
      </trkpt>
      <trkpt lat="51.231527398859" lon="4.46281441193">
        <ele>2</ele>
        <time>2019-02-02T11:47:44Z</time>
      </trkpt>
      <trkpt lat="51.231553382749" lon="4.462519955783">
        <ele>5.4</ele>
        <time>2019-02-02T11:47:52Z</time>
      </trkpt>
      <trkpt lat="51.23161700137" lon="4.462239162133">
        <ele>7.4</ele>
        <time>2019-02-02T11:48:00Z</time>
      </trkpt>
      <trkpt lat="51.231606691633" lon="4.461937581371">
        <ele>6.4</ele>
        <time>2019-02-02T11:48:08Z</time>
      </trkpt>
      <trkpt lat="51.231559920631" lon="4.461645304518">
        <ele>7.8</ele>
        <time>2019-02-02T11:48:15Z</time>
      </trkpt>
      <trkpt lat="51.231623539252" lon="4.461499208001">
        <ele>7</ele>
        <time>2019-02-02T11:48:20Z</time>
      </trkpt>
      <trkpt lat="51.231727474812" lon="4.461453526646">
        <ele>3.2</ele>
        <time>2019-02-02T11:48:26Z</time>
      </trkpt>
      <trkpt lat="51.231781202791" lon="4.461154460454">
        <ele>4.8</ele>
        <time>2019-02-02T11:48:34Z</time>
      </trkpt>
      <trkpt lat="51.231799140057" lon="4.460844916887">
        <ele>4.8</ele>
        <time>2019-02-02T11:48:43Z</time>
      </trkpt>
      <trkpt lat="51.231798553324" lon="4.460613911723">
        <ele>4.6</ele>
        <time>2019-02-02T11:48:49Z</time>
      </trkpt>
      <trkpt lat="51.231759996584" lon="4.46030403288">
        <ele>6</ele>
        <time>2019-02-02T11:48:57Z</time>
      </trkpt>
      <trkpt lat="51.231722026577" lon="4.459998764082">
        <ele>4.8</ele>
        <time>2019-02-02T11:49:05Z</time>
      </trkpt>
      <trkpt lat="51.231665700209" lon="4.459701038994">
        <ele>3.8</ele>
        <time>2019-02-02T11:49:12Z</time>
      </trkpt>
      <trkpt lat="51.231624964175" lon="4.45938621483">
        <ele>5.4</ele>
        <time>2019-02-02T11:49:20Z</time>
      </trkpt>
      <trkpt lat="51.231597471543" lon="4.459091004312">
        <ele>5.8</ele>
        <time>2019-02-02T11:49:28Z</time>
      </trkpt>
      <trkpt lat="51.231530332524" lon="4.458787244256">
        <ele>2.4</ele>
        <time>2019-02-02T11:49:36Z</time>
      </trkpt>
      <trkpt lat="51.231440227099" lon="4.45853545198">
        <ele>0.6</ele>
        <time>2019-02-02T11:49:44Z</time>
      </trkpt>
      <trkpt lat="51.231270493624" lon="4.458565962096">
        <ele>0</ele>
        <time>2019-02-02T11:49:52Z</time>
      </trkpt>
      <trkpt lat="51.231180639656" lon="4.458300339685">
        <ele>0</ele>
        <time>2019-02-02T11:50:00Z</time>
      </trkpt>
      <trkpt lat="51.23112917479" lon="4.458006302633">
        <ele>4.2</ele>
        <time>2019-02-02T11:50:07Z</time>
      </trkpt>
      <trkpt lat="51.231100341054" lon="4.45768552732">
        <ele>4</ele>
        <time>2019-02-02T11:50:15Z</time>
      </trkpt>
      <trkpt lat="51.2311283366" lon="4.45737874978">
        <ele>3</ele>
        <time>2019-02-02T11:50:23Z</time>
      </trkpt>
      <trkpt lat="51.231142669649" lon="4.457078174846">
        <ele>3.8</ele>
        <time>2019-02-02T11:50:31Z</time>
      </trkpt>
      <trkpt lat="51.231174185593" lon="4.456759075913">
        <ele>2.4</ele>
        <time>2019-02-02T11:50:39Z</time>
      </trkpt>
      <trkpt lat="51.231164630227" lon="4.456466296146">
        <ele>2.6</ele>
        <time>2019-02-02T11:50:47Z</time>
      </trkpt>
      <trkpt lat="51.231043930867" lon="4.456248450565">
        <ele>3.2</ele>
        <time>2019-02-02T11:50:55Z</time>
      </trkpt>
      <trkpt lat="51.230879226532" lon="4.456074107045">
        <ele>2.8</ele>
        <time>2019-02-02T11:51:03Z</time>
      </trkpt>
      <trkpt lat="51.230721311536" lon="4.455928429623">
        <ele>2.2</ele>
        <time>2019-02-02T11:51:10Z</time>
      </trkpt>
      <trkpt lat="51.2305667493" lon="4.455758360872">
        <ele>4</ele>
        <time>2019-02-02T11:51:17Z</time>
      </trkpt>
      <trkpt lat="51.230406152096" lon="4.45555484834">
        <ele>6.6</ele>
        <time>2019-02-02T11:51:25Z</time>
      </trkpt>
      <trkpt lat="51.230238765553" lon="4.455386204512">
        <ele>7.4</ele>
        <time>2019-02-02T11:51:34Z</time>
      </trkpt>
      <trkpt lat="51.230041707084" lon="4.455251172103">
        <ele>5</ele>
        <time>2019-02-02T11:51:44Z</time>
      </trkpt>
      <trkpt lat="51.229860741863" lon="4.455103650663">
        <ele>6</ele>
        <time>2019-02-02T11:51:51Z</time>
      </trkpt>
      <trkpt lat="51.229683380859" lon="4.454999715103">
        <ele>6.8</ele>
        <time>2019-02-02T11:51:57Z</time>
      </trkpt>
      <trkpt lat="51.229504427294" lon="4.454922601623">
        <ele>7.2</ele>
        <time>2019-02-02T11:52:04Z</time>
      </trkpt>
      <trkpt lat="51.229323378254" lon="4.454886140358">
        <ele>6.6</ele>
        <time>2019-02-02T11:52:11Z</time>
      </trkpt>
      <trkpt lat="51.229033783609" lon="4.454806847584">
        <ele>7.4</ele>
        <time>2019-02-02T11:52:23Z</time>
      </trkpt>
      <trkpt lat="51.22885265075" lon="4.454733170683">
        <ele>4.2</ele>
        <time>2019-02-02T11:52:30Z</time>
      </trkpt>
      <trkpt lat="51.228670512063" lon="4.454643484353">
        <ele>0.6</ele>
        <time>2019-02-02T11:52:38Z</time>
      </trkpt>
      <trkpt lat="51.228461802753" lon="4.4547116292">
        <ele>0</ele>
        <time>2019-02-02T11:52:46Z</time>
      </trkpt>
      <trkpt lat="51.228284190292" lon="4.454776337468">
        <ele>0</ele>
        <time>2019-02-02T11:52:54Z</time>
      </trkpt>
      <trkpt lat="51.228107164564" lon="4.454839956089">
        <ele>0.2</ele>
        <time>2019-02-02T11:53:00Z</time>
      </trkpt>
      <trkpt lat="51.227934748881" lon="4.454925870564">
        <ele>1.8</ele>
        <time>2019-02-02T11:53:07Z</time>
      </trkpt>
      <trkpt lat="51.227750766176" lon="4.455054281272">
        <ele>3.6</ele>
        <time>2019-02-02T11:53:15Z</time>
      </trkpt>
      <trkpt lat="51.227682872786" lon="4.455153187692">
        <ele>4.8</ele>
        <time>2019-02-02T11:53:19Z</time>
      </trkpt>
      <trkpt lat="51.227781024835" lon="4.455430377125">
        <ele>5.6</ele>
        <time>2019-02-02T11:53:28Z</time>
      </trkpt>
      <trkpt lat="51.227889486621" lon="4.455693904061">
        <ele>3.4</ele>
        <time>2019-02-02T11:53:36Z</time>
      </trkpt>
      <trkpt lat="51.227989566507" lon="4.455954581151">
        <ele>0</ele>
        <time>2019-02-02T11:53:44Z</time>
      </trkpt>
      <trkpt lat="51.228103476528" lon="4.456218275725">
        <ele>0</ele>
        <time>2019-02-02T11:53:52Z</time>
      </trkpt>
      <trkpt lat="51.228192576125" lon="4.456478198444">
        <ele>0</ele>
        <time>2019-02-02T11:53:59Z</time>
      </trkpt>
      <trkpt lat="51.228313191666" lon="4.456728565797">
        <ele>0</ele>
        <time>2019-02-02T11:54:06Z</time>
      </trkpt>
      <trkpt lat="51.228431460275" lon="4.456954541821">
        <ele>0</ele>
        <time>2019-02-02T11:54:13Z</time>
      </trkpt>
      <trkpt lat="51.228484098607" lon="4.457115139025">
        <ele>0</ele>
        <time>2019-02-02T11:54:19Z</time>
      </trkpt>
      <trkpt lat="51.228486696996" lon="4.457409930448">
        <ele>0</ele>
        <time>2019-02-02T11:54:27Z</time>
      </trkpt>
      <trkpt lat="51.2285215657" lon="4.457708242269">
        <ele>0</ele>
        <time>2019-02-02T11:54:34Z</time>
      </trkpt>
      <trkpt lat="51.22857688624" lon="4.457983503865">
        <ele>0</ele>
        <time>2019-02-02T11:54:41Z</time>
      </trkpt>
      <trkpt lat="51.228623070509" lon="4.458189614786">
        <ele>0</ele>
        <time>2019-02-02T11:54:47Z</time>
      </trkpt>
      <trkpt lat="51.228807472309" lon="4.458175449375">
        <ele>10.2</ele>
        <time>2019-02-02T11:55:00Z</time>
      </trkpt>
      <trkpt lat="51.228870504197" lon="4.458164720543">
        <ele>11.2</ele>
        <time>2019-02-02T11:55:04Z</time>
      </trkpt>
      <trkpt lat="51.229063623173" lon="4.458105544329">
        <ele>12.2</ele>
        <time>2019-02-02T11:55:13Z</time>
      </trkpt>
      <trkpt lat="51.22925665833" lon="4.45805516911">
        <ele>12.4</ele>
        <time>2019-02-02T11:55:20Z</time>
      </trkpt>
      <trkpt lat="51.229437958827" lon="4.457995238525">
        <ele>12.2</ele>
        <time>2019-02-02T11:55:27Z</time>
      </trkpt>
      <trkpt lat="51.229620851885" lon="4.457938576881">
        <ele>9</ele>
        <time>2019-02-02T11:55:35Z</time>
      </trkpt>
      <trkpt lat="51.229814641413" lon="4.457829444543">
        <ele>7.6</ele>
        <time>2019-02-02T11:55:43Z</time>
      </trkpt>
      <trkpt lat="51.23001605847" lon="4.457801868092">
        <ele>3.6</ele>
        <time>2019-02-02T11:55:51Z</time>
      </trkpt>
      <trkpt lat="51.230207249609" lon="4.457785607206">
        <ele>1.4</ele>
        <time>2019-02-02T11:55:59Z</time>
      </trkpt>
      <trkpt lat="51.230407074105" lon="4.457742691878">
        <ele>0</ele>
        <time>2019-02-02T11:56:08Z</time>
      </trkpt>
      <trkpt lat="51.230618968537" lon="4.457721988585">
        <ele>0</ele>
        <time>2019-02-02T11:56:16Z</time>
      </trkpt>
      <trkpt lat="51.230711169437" lon="4.45774420062">
        <ele>0</ele>
        <time>2019-02-02T11:56:20Z</time>
      </trkpt>
      <trkpt lat="51.230696082017" lon="4.457763143714">
        <ele>0</ele>
        <time>2019-02-02T11:56:22Z</time>
      </trkpt>
      <trkpt lat="51.230513188959" lon="4.45775258252">
        <ele>0</ele>
        <time>2019-02-02T11:56:31Z</time>
      </trkpt>
      <trkpt lat="51.230326943141" lon="4.457778231134">
        <ele>0</ele>
        <time>2019-02-02T11:56:39Z</time>
      </trkpt>
      <trkpt lat="51.230147905757" lon="4.45781125582">
        <ele>0</ele>
        <time>2019-02-02T11:56:47Z</time>
      </trkpt>
      <trkpt lat="51.22994816508" lon="4.457836904434">
        <ele>0</ele>
        <time>2019-02-02T11:56:56Z</time>
      </trkpt>
      <trkpt lat="51.229912542005" lon="4.457949892446">
        <ele>0</ele>
        <time>2019-02-02T11:56:59Z</time>
      </trkpt>
      <trkpt lat="51.229940286094" lon="4.458271086854">
        <ele>0</ele>
        <time>2019-02-02T11:57:06Z</time>
      </trkpt>
      <trkpt lat="51.229964761242" lon="4.458555819997">
        <ele>0</ele>
        <time>2019-02-02T11:57:13Z</time>
      </trkpt>
      <trkpt lat="51.22999510372" lon="4.458866285573">
        <ele>0</ele>
        <time>2019-02-02T11:57:21Z</time>
      </trkpt>
      <trkpt lat="51.229963001043" lon="4.458898723526">
        <ele>0</ele>
        <time>2019-02-02T11:57:23Z</time>
      </trkpt>
      <trkpt lat="51.229893263635" lon="4.458620612084">
        <ele>0</ele>
        <time>2019-02-02T11:57:32Z</time>
      </trkpt>
      <trkpt lat="51.229837188724" lon="4.458306374653">
        <ele>0</ele>
        <time>2019-02-02T11:57:40Z</time>
      </trkpt>
      <trkpt lat="51.229797458518" lon="4.458023653166">
        <ele>0</ele>
        <time>2019-02-02T11:57:47Z</time>
      </trkpt>
      <trkpt lat="51.229776084673" lon="4.457954418672">
        <ele>0</ele>
        <time>2019-02-02T11:57:50Z</time>
      </trkpt>
      <trkpt lat="51.229582211326" lon="4.458042009527">
        <ele>0</ele>
        <time>2019-02-02T11:58:00Z</time>
      </trkpt>
      <trkpt lat="51.229386326323" lon="4.458056594033">
        <ele>0</ele>
        <time>2019-02-02T11:58:08Z</time>
      </trkpt>
      <trkpt lat="51.22919966141" lon="4.458096994791">
        <ele>0</ele>
        <time>2019-02-02T11:58:15Z</time>
      </trkpt>
      <trkpt lat="51.229017355085" lon="4.45813395897">
        <ele>0</ele>
        <time>2019-02-02T11:58:22Z</time>
      </trkpt>
      <trkpt lat="51.228747709362" lon="4.458141167404">
        <ele>6</ele>
        <time>2019-02-02T11:58:32Z</time>
      </trkpt>
      <trkpt lat="51.228589626728" lon="4.458224315852">
        <ele>10.2</ele>
        <time>2019-02-02T11:58:39Z</time>
      </trkpt>
      <trkpt lat="51.228591051651" lon="4.458199253971">
        <ele>14</ele>
        <time>2019-02-02T11:58:42Z</time>
      </trkpt>
      <trkpt lat="51.228786266102" lon="4.45810462232">
        <ele>9.6</ele>
        <time>2019-02-02T11:58:53Z</time>
      </trkpt>
      <trkpt lat="51.228969410617" lon="4.458084338122">
        <ele>11.2</ele>
        <time>2019-02-02T11:59:01Z</time>
      </trkpt>
      <trkpt lat="51.229086002846" lon="4.458110657288">
        <ele>2.6</ele>
        <time>2019-02-02T11:59:08Z</time>
      </trkpt>
    </trkseg>
  </trk>
</gpx>